createdAt,value
2018-11-28T00:00:04.564Z,8.50
2018-11-28T00:02:39.597Z,9.77
2018-11-28T00:05:16.274Z,8.97
2018-11-28T00:07:50.480Z,9.70
2018-11-28T00:10:25.010Z,11.33
2018-11-28T00:12:59.527Z,9.03
2018-11-28T00:15:34.560Z,9.30
2018-11-28T00:18:09.596Z,9.67
2018-11-28T00:20:45.011Z,8.90
2018-11-28T00:23:20.484Z,10.60
2018-11-28T00:25:58.796Z,8.97
2018-11-28T00:28:29.317Z,9.57
2018-11-28T00:31:04.556Z,8.43
2018-11-28T00:33:39.386Z,9.37
2018-11-28T00:36:14.622Z,13.40
2018-11-28T00:38:50.474Z,10.77
2018-11-28T00:41:25.508Z,10.30
2018-11-28T00:43:59.517Z,13.80
2018-11-28T00:46:34.549Z,10.90
2018-11-28T00:49:09.584Z,12.77
2018-11-28T00:51:44.004Z,11.33
2018-11-28T00:54:18.636Z,13.43
2018-11-28T00:56:52.637Z,13.87
2018-11-28T00:59:26.644Z,13.40
2018-11-28T01:02:02.705Z,12.07
2018-11-28T01:04:37.529Z,14.70
2018-11-28T01:07:12.361Z,14.97
2018-11-28T01:09:46.786Z,13.57
2018-11-28T01:12:20.587Z,11.10
2018-11-28T01:14:54.597Z,13.27
2018-11-28T01:17:28.609Z,11.23
2018-11-28T01:20:03.637Z,12.63
2018-11-28T01:22:38.878Z,12.47
2018-11-28T01:25:14.527Z,11.40
2018-11-28T01:27:51.606Z,11.53
2018-11-28T01:30:28.483Z,9.90
2018-11-28T01:33:04.336Z,13.60
2018-11-28T01:35:38.347Z,11.60
2018-11-28T01:38:13.379Z,11.47
2018-11-28T01:40:48.617Z,11.73
2018-11-28T01:43:23.032Z,10.23
2018-11-28T01:45:57.658Z,11.37
2018-11-28T01:48:31.668Z,11.80
2018-11-28T01:51:05.676Z,16.03
2018-11-28T01:53:40.510Z,15.33
2018-11-28T01:56:13.697Z,17.37
2018-11-28T01:58:47.505Z,14.50
2018-11-28T02:01:22.537Z,13.83
2018-11-28T02:03:58.385Z,13.93
2018-11-28T02:06:33.626Z,13.70
2018-11-28T02:09:09.681Z,14.57
2018-11-28T02:11:43.694Z,14.33
2018-11-28T02:14:17.909Z,13.37
2018-11-28T02:16:54.371Z,15.00
2018-11-28T02:19:29.615Z,15.10
2018-11-28T02:22:04.648Z,14.90
2018-11-28T02:24:39.680Z,13.13
2018-11-28T02:27:13.689Z,11.77
2018-11-28T02:29:47.699Z,12.93
2018-11-28T02:32:23.551Z,15.70
2018-11-28T02:34:57.773Z,16.37
2018-11-28T02:37:31.571Z,14.87
2018-11-28T02:40:06.809Z,14.60
2018-11-28T02:42:41.638Z,16.87
2018-11-28T02:45:18.719Z,14.73
2018-11-28T02:47:53.343Z,15.77
2018-11-28T02:50:28.583Z,17.47
2018-11-28T02:53:03.408Z,17.30
2018-11-28T02:55:38.648Z,11.70
2018-11-28T02:58:13.682Z,11.53
2018-11-28T03:00:48.711Z,13.17
2018-11-28T03:03:22.727Z,15.20
2018-11-28T03:05:58.578Z,14.33
2018-11-28T03:08:34.635Z,14.93
2018-11-28T03:11:09.669Z,18.10
2018-11-28T03:13:44.707Z,16.73
2018-11-28T03:16:22.600Z,16.43
2018-11-28T03:18:57.635Z,16.63
2018-11-28T03:21:31.644Z,16.67
2018-11-28T03:24:05.652Z,19.77
2018-11-28T03:26:40.686Z,16.50
2018-11-28T03:29:14.697Z,15.37
2018-11-28T03:31:49.729Z,15.60
2018-11-28T03:34:24.969Z,15.73
2018-11-28T03:36:59.594Z,15.43
2018-11-28T03:39:34.629Z,14.97
2018-11-28T03:42:09.659Z,16.93
2018-11-28T03:44:44.691Z,16.77
2018-11-28T03:47:18.705Z,18.97
2018-11-28T03:49:52.713Z,16.33
2018-11-28T03:52:26.721Z,20.77
2018-11-28T03:55:00.731Z,17.33
2018-11-28T03:57:34.741Z,19.50
2018-11-28T04:00:10.592Z,20.13
2018-11-28T04:02:44.604Z,22.43
2018-11-28T04:05:19.434Z,18.63
2018-11-28T04:07:53.648Z,21.03
2018-11-28T04:10:27.662Z,18.77
2018-11-28T04:13:03.713Z,17.43
2018-11-28T04:15:37.724Z,18.80
2018-11-28T04:18:12.554Z,17.13
2018-11-28T04:20:47.790Z,16.00
2018-11-28T04:23:21.595Z,19.80
2018-11-28T04:25:56.629Z,18.47
2018-11-28T04:28:32.686Z,18.63
2018-11-28T04:31:07.716Z,15.40
2018-11-28T04:33:42.558Z,17.03
2018-11-28T04:36:15.944Z,16.93
2018-11-28T04:38:49.543Z,16.57
2018-11-28T04:41:25.600Z,13.37
2018-11-28T04:44:00.632Z,13.63
2018-11-28T04:46:35.667Z,16.77
2018-11-28T04:49:10.701Z,15.13
2018-11-28T04:51:46.551Z,17.57
2018-11-28T04:54:22.821Z,12.70
2018-11-28T04:56:56.617Z,12.40
2018-11-28T04:59:30.631Z,12.27
2018-11-28T05:02:06.236Z,13.57
2018-11-28T05:04:40.907Z,11.60
2018-11-28T05:07:36.835Z,12.83
2018-11-28T05:10:14.927Z,10.50
2018-11-28T05:12:50.795Z,12.20
2018-11-28T05:15:26.840Z,11.90
2018-11-28T05:18:01.877Z,10.50
2018-11-28T05:20:41.330Z,10.40
2018-11-28T05:23:15.833Z,12.90
2018-11-28T05:25:51.688Z,11.23
2018-11-28T05:28:26.925Z,12.13
2018-11-28T05:31:01.960Z,13.53
2018-11-28T05:33:37.196Z,9.87
2018-11-28T05:36:12.843Z,10.70
2018-11-28T05:38:48.900Z,12.20
2018-11-28T05:41:23.932Z,12.33
2018-11-28T05:44:00.813Z,13.30
2018-11-28T05:46:35.841Z,11.17
2018-11-28T05:49:15.116Z,14.43
2018-11-28T05:51:47.961Z,16.67
2018-11-28T05:54:22.348Z,14.50
2018-11-28T05:56:58.846Z,12.43
2018-11-28T05:59:34.904Z,13.53
2018-11-28T06:02:10.761Z,11.63
2018-11-28T06:04:46.815Z,12.00
2018-11-28T06:07:21.850Z,12.53
2018-11-28T06:27:13.782Z,14.90
2018-11-28T06:29:47.792Z,15.00
2018-11-28T06:32:23.849Z,16.03
2018-11-28T06:35:02.977Z,16.97
2018-11-28T06:55:11.912Z,16.13
2018-11-28T07:17:50.763Z,16.67
2018-11-28T07:20:27.399Z,17.17
2018-11-28T07:23:03.899Z,21.00
2018-11-28T07:43:11.192Z,17.63
2018-11-28T07:45:55.045Z,19.03
2018-11-28T08:08:40.027Z,17.73
2018-11-28T08:11:16.465Z,17.23
2018-11-28T08:13:56.033Z,18.87
2018-11-28T08:16:31.271Z,21.73
2018-11-28T08:36:27.109Z,16.30
2018-11-28T08:39:01.762Z,18.00
2018-11-28T08:58:54.070Z,23.00
2018-11-28T09:01:30.126Z,17.93
2018-11-28T09:04:04.135Z,18.63
2018-11-28T09:23:55.732Z,24.77
2018-11-28T09:26:41.344Z,19.67
2018-11-28T09:29:18.014Z,29.03
2018-11-28T09:31:59.596Z,18.00
2018-11-28T09:34:35.499Z,20.90
2018-11-28T09:54:27.390Z,18.87
2018-11-28T09:57:06.111Z,18.07
2018-11-28T10:17:05.423Z,19.83
2018-11-28T10:37:05.142Z,18.03
2018-11-28T10:39:39.145Z,27.80
2018-11-28T10:59:31.520Z,21.67
2018-11-28T11:02:11.232Z,22.50
2018-11-28T11:22:09.046Z,18.87
2018-11-28T11:42:09.030Z,17.70
2018-11-28T11:44:45.295Z,19.40
2018-11-28T11:47:20.532Z,18.87
2018-11-28T12:07:13.291Z,18.43
2018-11-28T12:29:50.293Z,15.73
2018-11-28T12:32:25.122Z,18.00
2018-11-28T12:34:58.311Z,16.53
2018-11-28T12:54:48.199Z,21.57
2018-11-28T12:57:22.616Z,17.80
2018-11-28T12:59:57.240Z,22.10
2018-11-28T13:02:32.683Z,17.90
2018-11-28T13:05:08.535Z,22.97
2018-11-28T13:25:05.591Z,17.47
2018-11-28T13:27:39.191Z,15.90
2018-11-28T13:30:18.317Z,16.23
2018-11-28T13:32:53.147Z,18.77
2018-11-28T13:35:33.096Z,15.97
2018-11-28T13:55:42.580Z,15.60
2018-11-28T13:58:19.318Z,19.03
2018-11-28T14:18:17.195Z,16.87
2018-11-28T14:20:54.270Z,18.60
2018-11-28T14:23:30.129Z,17.43
2018-11-28T14:43:28.208Z,19.40
2018-11-28T14:46:10.408Z,23.30
2018-11-28T15:06:06.449Z,20.87
2018-11-28T15:08:41.268Z,16.87
2018-11-28T15:11:18.348Z,22.17
2018-11-28T15:31:11.310Z,16.67
2018-11-28T15:33:49.413Z,24.23
2018-11-28T15:53:48.358Z,23.27
2018-11-28T15:56:29.975Z,21.47
2018-11-28T15:59:06.368Z,20.37
2018-11-28T16:01:45.291Z,20.57
2018-11-28T16:04:23.193Z,20.90
2018-11-28T16:06:59.250Z,18.60
2018-11-28T16:09:39.200Z,19.67
2018-11-28T16:12:15.462Z,24.30
2018-11-28T16:14:58.275Z,30.40
2018-11-28T16:17:35.360Z,24.77
2018-11-28T16:20:13.673Z,23.53
2018-11-28T16:22:50.342Z,22.47
2018-11-28T16:25:31.107Z,22.60
2018-11-28T16:28:06.349Z,20.47
2018-11-28T16:30:41.382Z,22.30
2018-11-28T16:33:18.052Z,24.50
2018-11-28T16:35:54.771Z,21.77
2018-11-28T16:38:30.371Z,20.47
2018-11-28T16:41:05.608Z,25.90
2018-11-28T16:43:45.564Z,22.03
2018-11-28T16:46:26.122Z,18.97
2018-11-28T16:49:01.361Z,24.23
2018-11-28T16:51:39.264Z,20.00
2018-11-28T16:54:13.291Z,23.30
2018-11-28T16:56:48.303Z,21.37
2018-11-28T16:59:32.553Z,28.33
2018-11-28T17:02:08.407Z,30.70
2018-11-28T17:04:44.261Z,29.77
2018-11-28T17:07:19.292Z,28.00
2018-11-28T17:09:57.196Z,24.03
2018-11-28T17:12:33.252Z,23.80
2018-11-28T17:15:10.333Z,23.60
2018-11-28T17:17:45.367Z,20.47
2018-11-28T17:20:26.336Z,24.60
2018-11-28T17:23:03.623Z,19.33
2018-11-28T17:25:37.224Z,19.43
2018-11-28T17:28:13.282Z,53.53
2018-11-28T17:30:51.833Z,38.77
2018-11-28T17:33:33.381Z,27.57
2018-11-28T17:36:12.756Z,33.13
2018-11-28T17:38:52.107Z,33.63
2018-11-28T17:41:30.158Z,34.63
2018-11-28T17:44:13.384Z,26.70
2018-11-28T17:46:55.398Z,22.97
2018-11-28T17:49:30.798Z,23.93
2018-11-28T17:52:06.269Z,23.97
2018-11-28T17:54:46.630Z,24.20
2018-11-28T17:57:22.272Z,27.07
2018-11-28T17:59:57.308Z,20.80
2018-11-28T18:02:32.341Z,21.63
2018-11-28T18:05:06.351Z,17.27
2018-11-28T18:07:41.382Z,40.77
2018-11-28T18:10:20.308Z,38.27
2018-11-28T18:13:12.479Z,19.40
2018-11-28T18:16:01.298Z,18.30
2018-11-28T18:18:36.336Z,21.80
2018-11-28T18:21:14.233Z,21.83
2018-11-28T18:23:49.268Z,23.43
2018-11-28T18:26:23.481Z,19.20
2018-11-28T18:28:58.309Z,20.87
2018-11-28T18:31:33.340Z,23.57
2018-11-28T18:34:08.374Z,29.47
2018-11-28T18:36:46.282Z,30.90
2018-11-28T18:39:21.310Z,28.53
2018-11-28T18:41:57.368Z,29.37
2018-11-28T18:44:32.402Z,19.90
2018-11-28T18:47:07.435Z,22.10
2018-11-28T18:49:48.209Z,21.30
2018-11-28T18:52:23.643Z,19.43
2018-11-28T18:55:00.320Z,23.00
2018-11-28T18:57:35.350Z,24.63
2018-11-28T19:00:12.432Z,17.60
2018-11-28T19:02:47.260Z,22.93
2018-11-28T19:05:23.527Z,30.67
2018-11-28T19:07:59.375Z,24.20
2018-11-28T19:10:34.417Z,21.20
2018-11-28T19:13:10.679Z,24.90
2018-11-28T19:15:46.319Z,19.50
2018-11-28T19:18:20.331Z,23.43
2018-11-28T19:20:54.337Z,37.80
2018-11-28T19:23:28.347Z,21.60
2018-11-28T19:26:03.381Z,24.97
2018-11-28T19:28:38.414Z,25.70
2018-11-28T19:31:14.881Z,30.60
2018-11-28T19:33:49.715Z,19.40
2018-11-28T19:36:25.360Z,21.03
2018-11-28T19:39:00.803Z,24.13
2018-11-28T19:41:35.221Z,20.13
2018-11-28T19:44:14.353Z,16.47
2018-11-28T19:46:54.504Z,17.80
2018-11-28T19:49:30.564Z,17.80
2018-11-28T19:52:08.466Z,23.93
2018-11-28T20:11:59.375Z,19.50
2018-11-28T20:14:35.432Z,14.27
2018-11-28T20:17:09.237Z,17.13
2018-11-28T20:37:03.629Z,19.57
2018-11-28T20:39:45.631Z,22.07
2018-11-28T20:59:38.412Z,23.83
2018-11-28T21:02:10.549Z,23.17
2018-11-28T21:04:44.556Z,27.83
2018-11-28T21:07:20.410Z,26.37
2018-11-28T21:09:56.471Z,20.80
2018-11-28T21:29:49.630Z,19.43
2018-11-28T21:32:23.848Z,19.37
2018-11-28T21:34:59.494Z,20.27
2018-11-28T21:37:36.573Z,21.10
2018-11-28T21:40:12.634Z,18.53
2018-11-28T22:00:06.616Z,33.00
2018-11-28T22:02:42.262Z,20.60
2018-11-28T22:05:18.525Z,21.27
2018-11-28T22:07:54.584Z,25.87
2018-11-28T22:10:33.509Z,27.37
2018-11-28T22:30:27.491Z,18.73
2018-11-28T22:33:03.551Z,19.13
2018-11-28T22:52:56.709Z,22.37
2018-11-28T22:55:30.928Z,21.07
2018-11-28T22:58:03.708Z,19.30
2018-11-28T23:17:55.649Z,19.37
2018-11-28T23:20:29.653Z,19.30
2018-11-28T23:44:21.612Z,16.70
2018-11-28T23:46:55.619Z,19.47
2018-11-28T23:49:30.125Z,17.43
2018-11-28T23:52:04.869Z,17.33
